sensor_id;sensor_type;location;lat;lon;timestamp;P1;durP1;ratioP1;P2;durP2;ratioP2
51985;SDS011;38002;53.296;6.600;2022-07-29T00:01:14;1.42;;;0.70;;
51985;SDS011;38002;53.296;6.600;2022-07-29T00:06:15;1.50;;;1.00;;
51985;SDS011;38002;53.296;6.600;2022-07-29T00:11:16;2.42;;;0.95;;
51985;SDS011;38002;53.296;6.600;2022-07-29T00:16:16;0.85;;;0.80;;
51985;SDS011;38002;53.296;6.600;2022-07-29T00:21:17;3.20;;;1.98;;
51985;SDS011;38002;53.296;6.600;2022-07-29T00:26:17;1.20;;;1.10;;
51985;SDS011;38002;53.296;6.600;2022-07-29T00:31:18;2.35;;;1.20;;
51985;SDS011;38002;53.296;6.600;2022-07-29T00:36:18;3.97;;;1.25;;
51985;SDS011;38002;53.296;6.600;2022-07-29T00:46:21;2.72;;;1.30;;
51985;SDS011;38002;53.296;6.600;2022-07-29T00:51:21;1.23;;;0.90;;
51985;SDS011;38002;53.296;6.600;2022-07-29T00:56:22;1.38;;;1.20;;
51985;SDS011;38002;53.296;6.600;2022-07-29T01:01:22;2.83;;;1.20;;
51985;SDS011;38002;53.296;6.600;2022-07-29T01:06:23;2.95;;;1.23;;
51985;SDS011;38002;53.296;6.600;2022-07-29T01:11:24;2.72;;;1.02;;
51985;SDS011;38002;53.296;6.600;2022-07-29T01:16:28;7.57;;;1.40;;
51985;SDS011;38002;53.296;6.600;2022-07-29T01:26:49;1.35;;;1.10;;
51985;SDS011;38002;53.296;6.600;2022-07-29T01:31:58;2.10;;;1.30;;
51985;SDS011;38002;53.296;6.600;2022-07-29T01:37:09;2.72;;;1.30;;
51985;SDS011;38002;53.296;6.600;2022-07-29T01:42:29;2.53;;;1.30;;
51985;SDS011;38002;53.296;6.600;2022-07-29T01:47:42;1.02;;;1.02;;
51985;SDS011;38002;53.296;6.600;2022-07-29T01:57:50;4.40;;;1.40;;
51985;SDS011;38002;53.296;6.600;2022-07-29T02:02:51;1.20;;;1.20;;
51985;SDS011;38002;53.296;6.600;2022-07-29T02:07:54;4.35;;;1.35;;
51985;SDS011;38002;53.296;6.600;2022-07-29T02:12:57;4.00;;;2.15;;
51985;SDS011;38002;53.296;6.600;2022-07-29T02:18:09;3.53;;;1.50;;
51985;SDS011;38002;53.296;6.600;2022-07-29T02:23:18;2.20;;;1.67;;
51985;SDS011;38002;53.296;6.600;2022-07-29T02:28:21;1.40;;;1.30;;
51985;SDS011;38002;53.296;6.600;2022-07-29T02:33:24;2.10;;;1.17;;
51985;SDS011;38002;53.296;6.600;2022-07-29T02:38:26;3.15;;;1.15;;
51985;SDS011;38002;53.296;6.600;2022-07-29T02:43:47;10.82;;;1.98;;
51985;SDS011;38002;53.296;6.600;2022-07-29T02:49:02;2.03;;;1.30;;
51985;SDS011;38002;53.296;6.600;2022-07-29T02:54:09;1.10;;;1.00;;
51985;SDS011;38002;53.296;6.600;2022-07-29T02:59:11;4.82;;;1.42;;
51985;SDS011;38002;53.296;6.600;2022-07-29T03:04:14;1.98;;;1.35;;
51985;SDS011;38002;53.296;6.600;2022-07-29T03:09:17;7.50;;;1.58;;
51985;SDS011;38002;53.296;6.600;2022-07-29T03:14:18;2.77;;;1.50;;
51985;SDS011;38002;53.296;6.600;2022-07-29T03:19:19;1.23;;;1.13;;
51985;SDS011;38002;53.296;6.600;2022-07-29T03:24:24;2.30;;;1.02;;
51985;SDS011;38002;53.296;6.600;2022-07-29T03:29:25;5.13;;;1.58;;
51985;SDS011;38002;53.296;6.600;2022-07-29T03:34:26;4.25;;;1.35;;
51985;SDS011;38002;53.296;6.600;2022-07-29T03:39:27;4.60;;;1.40;;
51985;SDS011;38002;53.296;6.600;2022-07-29T03:44:31;2.78;;;1.50;;
51985;SDS011;38002;53.296;6.600;2022-07-29T03:49:32;5.33;;;1.30;;
51985;SDS011;38002;53.296;6.600;2022-07-29T03:54:37;2.47;;;1.27;;
51985;SDS011;38002;53.296;6.600;2022-07-29T03:59:38;6.18;;;1.58;;
51985;SDS011;38002;53.296;6.600;2022-07-29T04:04:39;2.80;;;1.10;;
51985;SDS011;38002;53.296;6.600;2022-07-29T04:09:40;5.25;;;1.30;;
51985;SDS011;38002;53.296;6.600;2022-07-29T04:14:41;5.67;;;2.17;;
51985;SDS011;38002;53.296;6.600;2022-07-29T04:19:41;2.35;;;1.17;;
51985;SDS011;38002;53.296;6.600;2022-07-29T04:24:42;2.45;;;1.42;;
51985;SDS011;38002;53.296;6.600;2022-07-29T04:29:42;2.40;;;1.20;;
51985;SDS011;38002;53.296;6.600;2022-07-29T04:34:43;4.43;;;1.40;;
51985;SDS011;38002;53.296;6.600;2022-07-29T04:39:45;2.55;;;1.27;;
51985;SDS011;38002;53.296;6.600;2022-07-29T04:44:45;4.88;;;1.38;;
51985;SDS011;38002;53.296;6.600;2022-07-29T04:49:46;3.47;;;1.73;;
51985;SDS011;38002;53.296;6.600;2022-07-29T04:54:46;2.10;;;1.10;;
51985;SDS011;38002;53.296;6.600;2022-07-29T04:59:47;1.90;;;1.10;;
51985;SDS011;38002;53.296;6.600;2022-07-29T05:04:48;5.33;;;1.40;;
51985;SDS011;38002;53.296;6.600;2022-07-29T05:09:49;2.10;;;1.30;;
51985;SDS011;38002;53.296;6.600;2022-07-29T05:14:49;5.10;;;1.10;;
51985;SDS011;38002;53.296;6.600;2022-07-29T05:19:50;2.40;;;1.52;;
51985;SDS011;38002;53.296;6.600;2022-07-29T05:24:51;3.30;;;1.00;;
51985;SDS011;38002;53.296;6.600;2022-07-29T05:29:51;1.88;;;1.40;;
51985;SDS011;38002;53.296;6.600;2022-07-29T05:34:52;4.35;;;1.40;;
51985;SDS011;38002;53.296;6.600;2022-07-29T05:39:52;4.30;;;1.55;;
51985;SDS011;38002;53.296;6.600;2022-07-29T05:44:53;6.30;;;1.45;;
51985;SDS011;38002;53.296;6.600;2022-07-29T05:49:53;4.20;;;1.45;;
51985;SDS011;38002;53.296;6.600;2022-07-29T05:54:54;2.17;;;1.25;;
51985;SDS011;38002;53.296;6.600;2022-07-29T05:59:54;5.07;;;1.10;;
51985;SDS011;38002;53.296;6.600;2022-07-29T06:04:55;3.25;;;1.38;;
51985;SDS011;38002;53.296;6.600;2022-07-29T06:09:55;4.85;;;1.92;;
51985;SDS011;38002;53.296;6.600;2022-07-29T06:14:56;5.50;;;1.48;;
51985;SDS011;38002;53.296;6.600;2022-07-29T06:19:56;4.38;;;1.52;;
51985;SDS011;38002;53.296;6.600;2022-07-29T06:24:57;2.33;;;1.30;;
51985;SDS011;38002;53.296;6.600;2022-07-29T06:29:57;6.22;;;1.70;;
51985;SDS011;38002;53.296;6.600;2022-07-29T06:34:58;2.67;;;1.50;;
51985;SDS011;38002;53.296;6.600;2022-07-29T06:39:58;1.95;;;1.27;;
51985;SDS011;38002;53.296;6.600;2022-07-29T06:45:17;3.13;;;1.40;;
51985;SDS011;38002;53.296;6.600;2022-07-29T06:50:18;3.83;;;1.27;;
51985;SDS011;38002;53.296;6.600;2022-07-29T06:55:18;1.20;;;1.00;;
51985;SDS011;38002;53.296;6.600;2022-07-29T07:00:19;4.93;;;1.33;;
51985;SDS011;38002;53.296;6.600;2022-07-29T07:05:20;3.90;;;1.63;;
51985;SDS011;38002;53.296;6.600;2022-07-29T07:10:20;3.60;;;1.63;;
51985;SDS011;38002;53.296;6.600;2022-07-29T07:15:21;1.30;;;1.13;;
51985;SDS011;38002;53.296;6.600;2022-07-29T07:20:21;2.65;;;1.17;;
51985;SDS011;38002;53.296;6.600;2022-07-29T07:25:22;6.07;;;1.98;;
51985;SDS011;38002;53.296;6.600;2022-07-29T07:30:22;4.30;;;1.42;;
51985;SDS011;38002;53.296;6.600;2022-07-29T07:35:23;3.27;;;1.40;;
51985;SDS011;38002;53.296;6.600;2022-07-29T07:40:24;2.83;;;1.57;;
51985;SDS011;38002;53.296;6.600;2022-07-29T07:45:25;1.88;;;1.60;;
51985;SDS011;38002;53.296;6.600;2022-07-29T07:50:27;7.25;;;1.70;;
51985;SDS011;38002;53.296;6.600;2022-07-29T07:55:27;2.37;;;1.20;;
51985;SDS011;38002;53.296;6.600;2022-07-29T08:00:28;3.00;;;1.70;;
51985;SDS011;38002;53.296;6.600;2022-07-29T08:05:28;4.97;;;2.13;;
51985;SDS011;38002;53.296;6.600;2022-07-29T08:10:29;5.87;;;1.73;;
51985;SDS011;38002;53.296;6.600;2022-07-29T08:15:48;5.32;;;1.35;;
51985;SDS011;38002;53.296;6.600;2022-07-29T08:20:57;5.57;;;1.42;;
51985;SDS011;38002;53.296;6.600;2022-07-29T08:25:58;2.15;;;1.27;;
51985;SDS011;38002;53.296;6.600;2022-07-29T08:30:58;7.70;;;1.50;;
51985;SDS011;38002;53.296;6.600;2022-07-29T08:35:59;3.67;;;1.23;;
51985;SDS011;38002;53.296;6.600;2022-07-29T08:41:00;2.60;;;1.47;;
51985;SDS011;38002;53.296;6.600;2022-07-29T08:46:01;4.47;;;1.60;;
51985;SDS011;38002;53.296;6.600;2022-07-29T08:51:01;2.93;;;1.60;;
51985;SDS011;38002;53.296;6.600;2022-07-29T08:56:02;3.85;;;1.52;;
51985;SDS011;38002;53.296;6.600;2022-07-29T09:01:03;1.40;;;1.20;;
51985;SDS011;38002;53.296;6.600;2022-07-29T09:06:04;2.57;;;1.83;;
51985;SDS011;38002;53.296;6.600;2022-07-29T09:11:05;7.88;;;1.75;;
51985;SDS011;38002;53.296;6.600;2022-07-29T09:16:07;8.20;;;1.80;;
51985;SDS011;38002;53.296;6.600;2022-07-29T09:21:11;3.07;;;1.60;;
51985;SDS011;38002;53.296;6.600;2022-07-29T09:26:34;3.67;;;2.25;;
51985;SDS011;38002;53.296;6.600;2022-07-29T09:31:38;4.15;;;1.50;;
51985;SDS011;38002;53.296;6.600;2022-07-29T09:36:47;3.38;;;1.83;;
51985;SDS011;38002;53.296;6.600;2022-07-29T09:41:49;5.22;;;1.90;;
51985;SDS011;38002;53.296;6.600;2022-07-29T09:52:14;5.55;;;1.85;;
51985;SDS011;38002;53.296;6.600;2022-07-29T09:57:21;2.95;;;1.67;;
51985;SDS011;38002;53.296;6.600;2022-07-29T10:02:30;2.05;;;1.90;;
51985;SDS011;38002;53.296;6.600;2022-07-29T10:12:50;7.55;;;2.15;;
51985;SDS011;38002;53.296;6.600;2022-07-29T10:17:52;5.53;;;2.05;;
51985;SDS011;38002;53.296;6.600;2022-07-29T10:22:53;1.58;;;1.33;;
51985;SDS011;38002;53.296;6.600;2022-07-29T10:27:54;4.80;;;1.93;;
51985;SDS011;38002;53.296;6.600;2022-07-29T10:43:43;3.38;;;1.50;;
51985;SDS011;38002;53.296;6.600;2022-07-29T10:54:18;2.90;;;1.85;;
51985;SDS011;38002;53.296;6.600;2022-07-29T10:59:35;4.60;;;2.25;;
51985;SDS011;38002;53.296;6.600;2022-07-29T11:10:09;4.55;;;1.73;;
51985;SDS011;38002;53.296;6.600;2022-07-29T11:15:29;4.75;;;1.98;;
51985;SDS011;38002;53.296;6.600;2022-07-29T11:20:54;6.60;;;1.90;;
51985;SDS011;38002;53.296;6.600;2022-07-29T11:31:31;7.00;;;2.30;;
51985;SDS011;38002;53.296;6.600;2022-07-29T11:36:34;4.85;;;1.83;;
51985;SDS011;38002;53.296;6.600;2022-07-29T11:41:35;8.23;;;2.60;;
51985;SDS011;38002;53.296;6.600;2022-07-29T11:46:50;8.52;;;2.75;;
51985;SDS011;38002;53.296;6.600;2022-07-29T11:51:51;6.68;;;2.55;;
51985;SDS011;38002;53.296;6.600;2022-07-29T11:56:52;4.35;;;2.50;;
51985;SDS011;38002;53.296;6.600;2022-07-29T12:01:56;5.03;;;2.42;;
51985;SDS011;38002;53.296;6.600;2022-07-29T12:06:58;4.30;;;2.63;;
51985;SDS011;38002;53.296;6.600;2022-07-29T12:11:59;2.27;;;2.07;;
51985;SDS011;38002;53.296;6.600;2022-07-29T12:17:00;4.00;;;2.50;;
51985;SDS011;38002;53.296;6.600;2022-07-29T12:22:00;9.77;;;1.93;;
51985;SDS011;38002;53.296;6.600;2022-07-29T12:27:01;3.30;;;1.60;;
51985;SDS011;38002;53.296;6.600;2022-07-29T12:32:02;4.80;;;1.83;;
51985;SDS011;38002;53.296;6.600;2022-07-29T12:37:04;2.40;;;1.65;;
51985;SDS011;38002;53.296;6.600;2022-07-29T12:42:15;6.60;;;2.77;;
51985;SDS011;38002;53.296;6.600;2022-07-29T12:47:16;4.20;;;2.10;;
51985;SDS011;38002;53.296;6.600;2022-07-29T12:52:28;10.25;;;2.95;;
51985;SDS011;38002;53.296;6.600;2022-07-29T12:57:44;15.02;;;4.32;;
51985;SDS011;38002;53.296;6.600;2022-07-29T13:02:54;4.65;;;1.77;;
51985;SDS011;38002;53.296;6.600;2022-07-29T13:08:09;4.78;;;1.50;;
51985;SDS011;38002;53.296;6.600;2022-07-29T13:13:11;4.35;;;1.90;;
51985;SDS011;38002;53.296;6.600;2022-07-29T13:18:29;4.38;;;1.90;;
51985;SDS011;38002;53.296;6.600;2022-07-29T13:23:31;6.35;;;1.98;;
51985;SDS011;38002;53.296;6.600;2022-07-29T13:28:32;3.17;;;1.73;;
51985;SDS011;38002;53.296;6.600;2022-07-29T13:33:33;3.13;;;1.65;;
51985;SDS011;38002;53.296;6.600;2022-07-29T13:38:33;7.90;;;2.10;;
51985;SDS011;38002;53.296;6.600;2022-07-29T13:43:34;2.50;;;1.30;;
51985;SDS011;38002;53.296;6.600;2022-07-29T13:48:34;3.67;;;1.52;;
51985;SDS011;38002;53.296;6.600;2022-07-29T13:53:35;2.53;;;1.48;;
51985;SDS011;38002;53.296;6.600;2022-07-29T13:58:35;6.37;;;1.73;;
51985;SDS011;38002;53.296;6.600;2022-07-29T14:03:36;8.30;;;2.35;;
51985;SDS011;38002;53.296;6.600;2022-07-29T14:08:41;7.07;;;1.75;;
51985;SDS011;38002;53.296;6.600;2022-07-29T14:18:41;1.70;;;1.30;;
51985;SDS011;38002;53.296;6.600;2022-07-29T14:28:42;3.63;;;1.20;;
51985;SDS011;38002;53.296;6.600;2022-07-29T14:33:44;3.30;;;1.55;;
51985;SDS011;38002;53.296;6.600;2022-07-29T14:43:45;3.40;;;1.33;;
51985;SDS011;38002;53.296;6.600;2022-07-29T14:53:46;3.95;;;1.40;;
51985;SDS011;38002;53.296;6.600;2022-07-29T15:03:47;5.30;;;1.83;;
51985;SDS011;38002;53.296;6.600;2022-07-29T15:13:48;1.87;;;1.37;;
51985;SDS011;38002;53.296;6.600;2022-07-29T15:23:49;2.63;;;1.50;;
51985;SDS011;38002;53.296;6.600;2022-07-29T15:33:50;2.77;;;1.60;;
51985;SDS011;38002;53.296;6.600;2022-07-29T15:43:53;4.53;;;1.20;;
51985;SDS011;38002;53.296;6.600;2022-07-29T15:53:54;2.63;;;1.67;;
51985;SDS011;38002;53.296;6.600;2022-07-29T15:58:55;6.80;;;2.00;;
51985;SDS011;38002;53.296;6.600;2022-07-29T16:08:57;4.68;;;1.90;;
51985;SDS011;38002;53.296;6.600;2022-07-29T16:13:59;3.83;;;1.40;;
51985;SDS011;38002;53.296;6.600;2022-07-29T16:24:00;4.63;;;1.73;;
51985;SDS011;38002;53.296;6.600;2022-07-29T16:29:02;2.90;;;1.40;;
51985;SDS011;38002;53.296;6.600;2022-07-29T16:34:03;3.10;;;1.58;;
51985;SDS011;38002;53.296;6.600;2022-07-29T16:39:03;5.43;;;1.77;;
51985;SDS011;38002;53.296;6.600;2022-07-29T16:44:04;3.00;;;1.40;;
51985;SDS011;38002;53.296;6.600;2022-07-29T16:49:05;4.90;;;1.93;;
51985;SDS011;38002;53.296;6.600;2022-07-29T16:54:05;6.43;;;1.77;;
51985;SDS011;38002;53.296;6.600;2022-07-29T16:59:07;5.85;;;1.30;;
51985;SDS011;38002;53.296;6.600;2022-07-29T17:04:08;2.53;;;1.40;;
51985;SDS011;38002;53.296;6.600;2022-07-29T17:09:09;5.97;;;2.47;;
51985;SDS011;38002;53.296;6.600;2022-07-29T17:14:11;6.15;;;1.42;;
51985;SDS011;38002;53.296;6.600;2022-07-29T17:19:11;2.33;;;1.58;;
51985;SDS011;38002;53.296;6.600;2022-07-29T17:24:12;4.73;;;1.67;;
51985;SDS011;38002;53.296;6.600;2022-07-29T17:29:12;3.50;;;1.40;;
51985;SDS011;38002;53.296;6.600;2022-07-29T17:34:15;5.50;;;1.77;;
51985;SDS011;38002;53.296;6.600;2022-07-29T17:39:15;3.63;;;1.70;;
51985;SDS011;38002;53.296;6.600;2022-07-29T17:44:16;3.23;;;1.57;;
51985;SDS011;38002;53.296;6.600;2022-07-29T17:49:16;6.00;;;1.87;;
51985;SDS011;38002;53.296;6.600;2022-07-29T17:54:17;5.30;;;1.90;;
51985;SDS011;38002;53.296;6.600;2022-07-29T17:59:17;2.20;;;1.98;;
51985;SDS011;38002;53.296;6.600;2022-07-29T18:04:18;4.45;;;1.92;;
51985;SDS011;38002;53.296;6.600;2022-07-29T18:09:20;4.55;;;2.03;;
51985;SDS011;38002;53.296;6.600;2022-07-29T18:14:20;4.87;;;1.77;;
51985;SDS011;38002;53.296;6.600;2022-07-29T18:19:20;5.83;;;2.93;;
51985;SDS011;38002;53.296;6.600;2022-07-29T18:24:22;6.53;;;1.90;;
51985;SDS011;38002;53.296;6.600;2022-07-29T18:29:24;3.92;;;2.03;;
51985;SDS011;38002;53.296;6.600;2022-07-29T18:34:24;2.80;;;1.80;;
51985;SDS011;38002;53.296;6.600;2022-07-29T18:39:25;3.10;;;2.17;;
51985;SDS011;38002;53.296;6.600;2022-07-29T18:44:25;6.53;;;2.10;;
51985;SDS011;38002;53.296;6.600;2022-07-29T18:49:26;2.03;;;1.60;;
51985;SDS011;38002;53.296;6.600;2022-07-29T18:54:26;1.77;;;1.37;;
51985;SDS011;38002;53.296;6.600;2022-07-29T18:59:27;5.20;;;2.13;;
51985;SDS011;38002;53.296;6.600;2022-07-29T19:04:29;4.40;;;2.30;;
51985;SDS011;38002;53.296;6.600;2022-07-29T19:09:29;2.10;;;1.67;;
51985;SDS011;38002;53.296;6.600;2022-07-29T19:14:30;4.63;;;2.20;;
51985;SDS011;38002;53.296;6.600;2022-07-29T19:19:30;3.30;;;2.43;;
51985;SDS011;38002;53.296;6.600;2022-07-29T19:24:31;7.37;;;2.67;;
51985;SDS011;38002;53.296;6.600;2022-07-29T19:29:32;6.37;;;2.57;;
51985;SDS011;38002;53.296;6.600;2022-07-29T19:34:34;3.45;;;2.20;;
51985;SDS011;38002;53.296;6.600;2022-07-29T19:39:34;2.30;;;1.47;;
51985;SDS011;38002;53.296;6.600;2022-07-29T19:44:35;4.70;;;2.17;;
51985;SDS011;38002;53.296;6.600;2022-07-29T19:49:35;6.30;;;2.10;;
51985;SDS011;38002;53.296;6.600;2022-07-29T19:54:38;5.00;;;2.13;;
51985;SDS011;38002;53.296;6.600;2022-07-29T19:59:38;3.17;;;2.70;;
51985;SDS011;38002;53.296;6.600;2022-07-29T20:04:39;14.63;;;2.57;;
51985;SDS011;38002;53.296;6.600;2022-07-29T20:09:40;10.50;;;2.40;;
51985;SDS011;38002;53.296;6.600;2022-07-29T20:19:41;4.97;;;2.40;;
51985;SDS011;38002;53.296;6.600;2022-07-29T20:24:43;6.20;;;2.77;;
51985;SDS011;38002;53.296;6.600;2022-07-29T20:29:44;7.97;;;3.38;;
51985;SDS011;38002;53.296;6.600;2022-07-29T20:34:44;4.50;;;2.40;;
51985;SDS011;38002;53.296;6.600;2022-07-29T20:39:45;3.87;;;2.63;;
51985;SDS011;38002;53.296;6.600;2022-07-29T20:44:46;6.13;;;2.70;;
51985;SDS011;38002;53.296;6.600;2022-07-29T20:49:49;5.65;;;3.85;;
51985;SDS011;38002;53.296;6.600;2022-07-29T20:54:50;11.63;;;2.95;;
51985;SDS011;38002;53.296;6.600;2022-07-29T20:59:51;6.60;;;2.67;;
51985;SDS011;38002;53.296;6.600;2022-07-29T21:04:51;3.03;;;2.17;;
51985;SDS011;38002;53.296;6.600;2022-07-29T21:09:52;7.80;;;3.10;;
51985;SDS011;38002;53.296;6.600;2022-07-29T21:14:53;5.37;;;3.57;;
51985;SDS011;38002;53.296;6.600;2022-07-29T21:19:53;7.73;;;3.37;;
51985;SDS011;38002;53.296;6.600;2022-07-29T21:24:54;8.40;;;3.73;;
51985;SDS011;38002;53.296;6.600;2022-07-29T21:29:54;3.97;;;3.13;;
51985;SDS011;38002;53.296;6.600;2022-07-29T21:34:55;3.87;;;3.57;;
51985;SDS011;38002;53.296;6.600;2022-07-29T21:39:55;4.57;;;3.87;;
51985;SDS011;38002;53.296;6.600;2022-07-29T21:44:56;5.23;;;3.40;;
51985;SDS011;38002;53.296;6.600;2022-07-29T21:49:57;4.80;;;3.80;;
51985;SDS011;38002;53.296;6.600;2022-07-29T21:54:57;6.73;;;3.33;;
51985;SDS011;38002;53.296;6.600;2022-07-29T21:59:58;5.57;;;3.27;;
51985;SDS011;38002;53.296;6.600;2022-07-29T22:04:58;5.33;;;3.30;;
51985;SDS011;38002;53.296;6.600;2022-07-29T22:09:59;6.83;;;3.83;;
51985;SDS011;38002;53.296;6.600;2022-07-29T22:14:59;7.00;;;3.83;;
51985;SDS011;38002;53.296;6.600;2022-07-29T22:20:00;4.10;;;3.70;;
51985;SDS011;38002;53.296;6.600;2022-07-29T22:25:01;4.90;;;4.37;;
51985;SDS011;38002;53.296;6.600;2022-07-29T22:30:03;7.40;;;4.10;;
51985;SDS011;38002;53.296;6.600;2022-07-29T22:35:05;11.30;;;4.53;;
51985;SDS011;38002;53.296;6.600;2022-07-29T22:40:06;8.13;;;4.00;;
51985;SDS011;38002;53.296;6.600;2022-07-29T22:45:07;7.80;;;4.10;;
51985;SDS011;38002;53.296;6.600;2022-07-29T22:50:08;5.95;;;4.70;;
51985;SDS011;38002;53.296;6.600;2022-07-29T22:55:09;6.37;;;4.20;;
51985;SDS011;38002;53.296;6.600;2022-07-29T23:00:10;5.67;;;3.50;;
51985;SDS011;38002;53.296;6.600;2022-07-29T23:10:14;5.55;;;3.95;;
51985;SDS011;38002;53.296;6.600;2022-07-29T23:15:15;5.90;;;4.40;;
51985;SDS011;38002;53.296;6.600;2022-07-29T23:20:15;5.00;;;4.50;;
51985;SDS011;38002;53.296;6.600;2022-07-29T23:25:16;7.83;;;4.40;;
51985;SDS011;38002;53.296;6.600;2022-07-29T23:30:16;5.10;;;4.60;;
51985;SDS011;38002;53.296;6.600;2022-07-29T23:35:17;5.77;;;4.70;;
51985;SDS011;38002;53.296;6.600;2022-07-29T23:40:17;7.23;;;4.33;;
51985;SDS011;38002;53.296;6.600;2022-07-29T23:45:18;5.60;;;4.57;;
51985;SDS011;38002;53.296;6.600;2022-07-29T23:50:18;7.47;;;4.53;;
51985;SDS011;38002;53.296;6.600;2022-07-29T23:55:19;6.37;;;4.87;;
